Time;durP1;ratioP1;P1;durP2;ratioP2;P2;SDS_P1;SDS_P2;PMS_P1;PMS_P2;Temp;Humidity;BMP_temperature;BMP_pressure;BME280_temperature;BME280_humidity;BME280_pressure;Samples;Min_cycle;Max_cycle;Signal;HPM_P1;HPM_P2
2022/10/12 00:01:45;;;;;;;158.68;94.30;;;14.60;99.90;;;;;;5075737;28;20037;-71
2022/10/12 00:04:11;;;;;;;159.05;95.30;;;14.50;99.90;;;;;;5075642;28;20027;-71
2022/10/12 00:06:37;;;;;;;154.57;97.35;;;14.60;99.90;;;;;;5075762;28;20028;-71
2022/10/12 00:09:02;;;;;;;153.20;96.28;;;14.60;99.90;;;;;;5075643;28;20035;-71
2022/10/12 00:11:29;;;;;;;150.65;93.75;;;14.60;99.90;;;;;;5075723;28;20021;-71
2022/10/12 00:13:56;;;;;;;158.98;95.45;;;14.60;99.90;;;;;;5075300;28;20138;-71
2022/10/12 00:16:23;;;;;;;174.70;98.53;;;14.60;99.90;;;;;;5075506;28;20028;-71
2022/10/12 00:18:54;;;;;;;139.13;90.22;;;14.50;99.90;;;;;;5075645;28;20040;-71
2022/10/12 00:21:20;;;;;;;;;;;14.60;99.90;;;;;;5075735;28;20035;-71
2022/10/12 00:23:47;;;;;;;144.68;88.13;;;14.60;99.90;;;;;;5074562;28;19909;-71
2022/10/12 00:26:19;;;;;;;145.05;89.57;;;14.50;99.90;;;;;;5093509;28;20038;-71
2022/10/12 00:28:45;;;;;;;148.25;89.40;;;14.50;99.90;;;;;;5095528;28;20024;-71
2022/10/12 00:31:19;;;;;;;148.98;93.93;;;14.50;99.90;;;;;;5095645;28;20036;-71
2022/10/12 00:33:47;;;;;;;136.07;83.32;;;14.50;99.90;;;;;;5055099;28;20064;-71
2022/10/12 00:36:17;;;;;;;125.55;79.63;;;14.50;99.90;;;;;;5055109;28;20039;-71
2022/10/12 00:38:43;;;;;;;;;;;14.60;99.90;;;;;;5055681;28;20075;-71
2022/10/12 00:41:09;;;;;;;126.43;79.10;;;14.50;99.90;;;;;;5055096;28;19916;-71
2022/10/12 00:43:40;;;;;;;135.57;84.68;;;14.50;99.90;;;;;;5055123;28;20546;-71
2022/10/12 00:46:22;;;;;;;137.38;85.15;;;14.50;99.90;;;;;;5064044;28;20036;-71
2022/10/12 00:49:10;;;;;;;120.90;76.95;;;14.40;99.90;;;;;;5074960;28;20378;-71
2022/10/12 00:51:38;;;;;;;112.47;74.15;;;14.50;99.90;;;;;;5074782;28;20036;-71
2022/10/12 00:54:08;;;;;;;119.32;77.70;;;14.50;99.90;;;;;;5075202;28;20109;-71
2022/10/12 00:56:39;;;;;;;138.93;85.13;;;14.40;99.90;;;;;;5074757;28;20123;-71
2022/10/12 00:59:10;;;;;;;131.95;82.82;;;14.40;99.90;;;;;;5074551;28;20028;-71
2022/10/12 01:01:38;;;;;;;131.30;83.40;;;14.40;99.90;;;;;;5074788;28;20086;-71
2022/10/12 01:04:05;;;;;;;126.53;81.38;;;14.30;99.90;;;;;;5074776;28;20033;-71
2022/10/12 01:06:32;;;;;;;131.70;83.90;;;14.30;99.90;;;;;;5075034;28;20033;-71
2022/10/12 01:08:58;;;;;;;129.18;83.32;;;14.40;99.90;;;;;;5074676;28;20067;-71
2022/10/12 01:11:24;;;;;;;143.07;88.45;;;14.40;99.90;;;;;;5074712;28;20040;-71
2022/10/12 01:13:50;;;;;;;134.60;86.65;;;14.40;99.90;;;;;;5074405;28;20406;-71
2022/10/12 01:16:45;;;;;;;141.75;88.10;;;14.40;99.90;;;;;;5074469;28;20074;-71
2022/10/12 01:19:23;;;;;;;141.00;88.15;;;14.30;99.90;;;;;;5074541;28;20461;-71
2022/10/12 01:22:02;;;;;;;148.65;88.65;;;14.30;99.90;;;;;;5074322;28;20168;-71
2022/10/12 01:24:38;;;;;;;138.95;85.43;;;14.20;99.90;;;;;;5077818;28;20165;-71
2022/10/12 01:27:19;;;;;;;138.38;85.15;;;14.30;99.90;;;;;;5094606;28;20422;-71
2022/10/12 01:30:08;;;;;;;157.30;89.88;;;14.40;99.90;;;;;;5094786;28;20054;-71
2022/10/12 01:32:57;;;;;;;159.43;92.45;;;14.40;99.90;;;;;;5083493;28;20067;-71
2022/10/12 01:35:26;;;;;;;152.73;89.38;;;14.50;99.90;;;;;;5073976;28;20024;-71
2022/10/12 01:38:03;;;;;;;146.35;88.53;;;14.50;99.90;;;;;;5074291;28;20033;-71
2022/10/12 01:40:53;;;;;;;135.40;83.22;;;14.50;99.90;;;;;;5074451;28;20059;-71
2022/10/12 01:43:20;;;;;;;129.73;80.57;;;14.50;99.90;;;;;;5074229;28;20029;-71
2022/10/12 01:45:46;;;;;;;130.88;81.78;;;14.50;99.90;;;;;;5074144;28;20261;-71
2022/10/12 01:48:12;;;;;;;128.35;81.57;;;14.50;99.90;;;;;;5074050;28;20221;-72
2022/10/12 01:51:01;;;;;;;135.02;83.35;;;14.50;99.90;;;;;;5074083;28;20025;-72
2022/10/12 01:53:29;;;;;;;129.75;82.43;;;14.50;99.90;;;;;;5073997;28;20020;-71
2022/10/12 01:56:18;;;;;;;137.82;87.07;;;14.50;99.90;;;;;;5074068;28;20077;-72
2022/10/12 01:59:02;;;;;;;148.05;90.65;;;14.50;99.90;;;;;;5074018;28;20029;-72
2022/10/12 02:01:46;;;;;;;142.15;90.60;;;14.40;99.90;;;;;;5072745;28;20067;-71
2022/10/12 02:04:21;;;;;;;147.52;90.63;;;14.40;99.90;;;;;;5074262;28;20025;-71
2022/10/12 02:06:52;;;;;;;145.10;88.97;;;14.40;99.90;;;;;;5073878;28;20486;-71
2022/10/12 02:09:25;;;;;;;152.93;89.90;;;14.40;99.90;;;;;;5074039;28;20363;-71
2022/10/12 02:11:56;;;;;;;152.50;92.40;;;14.40;99.90;;;;;;5073282;28;20025;-72
2022/10/12 02:14:49;;;;;;;152.75;91.72;;;14.40;99.90;;;;;;5073646;28;20131;-71
2022/10/12 02:17:17;;;;;;;146.77;89.55;;;14.50;99.90;;;;;;5073950;28;20025;-71
2022/10/12 02:19:49;;;;;;;144.00;89.43;;;14.40;99.90;;;;;;5073991;28;20055;-71
2022/10/12 02:22:15;;;;;;;138.55;89.20;;;14.50;99.90;;;;;;5073503;28;20024;-71
2022/10/12 02:24:46;;;;;;;147.55;90.65;;;14.50;99.90;;;;;;5079064;28;20423;-71
2022/10/12 02:27:12;;;;;;;;;;;14.50;99.90;;;;;;5094562;28;20420;-71
2022/10/12 02:29:41;;;;;;;143.10;89.60;;;14.50;99.90;;;;;;5093860;28;19916;-72
2022/10/12 02:32:27;;;;;;;143.38;87.88;;;14.40;99.90;;;;;;5086778;28;20060;-72
2022/10/12 02:35:37;;;;;;;142.25;89.15;;;14.40;99.90;;;;;;5073418;28;20378;-71
2022/10/12 02:38:11;;;;;;;139.60;87.90;;;14.40;99.90;;;;;;5053860;28;20040;-71
2022/10/12 02:40:49;;;;;;;146.40;90.40;;;14.40;99.90;;;;;;5073719;28;20020;-71
2022/10/12 02:43:28;;;;;;;142.05;88.53;;;14.40;99.90;;;;;;5073564;28;20084;-72
2022/10/12 02:45:57;;;;;;;130.07;83.00;;;14.40;99.90;;;;;;5074033;28;20031;-71
2022/10/12 02:48:24;;;;;;;138.25;87.45;;;14.40;99.90;;;;;;5077272;28;20051;-72
2022/10/12 02:50:55;;;;;;;131.75;84.18;;;14.40;99.90;;;;;;5077116;28;20083;-72
2022/10/12 02:53:23;;;;;;;138.90;85.75;;;14.40;99.90;;;;;;5077149;28;20038;-71
2022/10/12 02:55:51;;;;;;;138.70;86.93;;;14.40;99.90;;;;;;5076989;28;20108;-72
2022/10/12 02:58:18;;;;;;;137.38;86.47;;;14.40;99.90;;;;;;5076935;28;20032;-72
2022/10/12 03:00:44;;;;;;;131.63;83.45;;;14.40;99.90;;;;;;5077080;28;20052;-71
2022/10/12 03:03:10;;;;;;;131.93;80.63;;;14.30;99.90;;;;;;5076696;28;20017;-71
2022/10/12 03:05:36;;;;;;;131.23;84.15;;;14.30;99.90;;;;;;5077057;28;20043;-72
2022/10/12 03:08:03;;;;;;;132.38;84.90;;;14.40;99.90;;;;;;5077033;28;20028;-71
2022/10/12 03:10:29;;;;;;;141.35;84.95;;;14.40;99.90;;;;;;5076909;28;20217;-72
2022/10/12 03:12:55;;;;;;;134.38;84.43;;;14.40;99.90;;;;;;5076635;28;20213;-71
2022/10/12 03:15:21;;;;;;;136.98;86.95;;;14.40;99.90;;;;;;5076697;28;20297;-72
2022/10/12 03:17:46;;;;;;;145.43;90.30;;;14.40;99.90;;;;;;5076651;28;20081;-71
2022/10/12 03:20:12;;;;;;;139.95;90.90;;;14.40;99.90;;;;;;5076843;28;20024;-71
2022/10/12 03:22:38;;;;;;;134.20;85.32;;;14.40;99.90;;;;;;5076290;28;20028;-72
2022/10/12 03:25:05;;;;;;;135.15;87.25;;;14.30;99.90;;;;;;5085069;28;20031;-72
2022/10/12 03:27:30;;;;;;;132.35;84.20;;;14.30;99.90;;;;;;5096957;28;20077;-72
2022/10/12 03:29:56;;;;;;;139.07;86.22;;;14.30;99.90;;;;;;5097030;28;20056;-72
2022/10/12 03:32:22;;;;;;;137.00;86.80;;;14.30;99.90;;;;;;5087358;28;20036;-72
2022/10/12 03:34:48;;;;;;;142.10;88.95;;;14.30;99.90;;;;;;5076317;28;20077;-72
2022/10/12 03:37:14;;;;;;;150.40;89.65;;;14.20;99.90;;;;;;5076462;28;20032;-72
2022/10/12 03:39:40;;;;;;;140.48;86.72;;;14.20;99.90;;;;;;5076052;28;20083;-72
2022/10/12 03:42:06;;;;;;;143.48;87.60;;;14.20;99.90;;;;;;5076367;28;20032;-72
2022/10/12 03:44:31;;;;;;;141.73;87.75;;;14.30;99.90;;;;;;5076381;28;20087;-72
2022/10/12 03:46:57;;;;;;;136.70;85.07;;;14.30;99.90;;;;;;5075947;28;20036;-72
2022/10/12 03:49:23;;;;;;;129.05;81.43;;;14.30;99.90;;;;;;5076156;28;20036;-72
2022/10/12 03:51:49;;;;;;;132.13;83.05;;;14.30;99.90;;;;;;5075884;28;20035;-72
2022/10/12 03:54:15;;;;;;;137.57;85.22;;;14.30;99.90;;;;;;5075964;28;20116;-72
2022/10/12 03:56:41;;;;;;;137.52;84.85;;;14.40;99.90;;;;;;5076061;28;20047;-72
2022/10/12 03:59:07;;;;;;;107.25;68.72;;;14.30;99.90;;;;;;5076095;28;20025;-72
2022/10/12 04:01:33;;;;;;;107.85;67.95;;;14.40;99.90;;;;;;5075643;28;20082;-72
2022/10/12 04:03:59;;;;;;;100.13;64.07;;;14.30;99.90;;;;;;5075995;28;20025;-72
2022/10/12 04:06:25;;;;;;;113.47;70.63;;;14.30;99.90;;;;;;5075720;28;20043;-72
2022/10/12 04:08:51;;;;;;;107.05;68.22;;;14.40;99.90;;;;;;5075762;28;20060;-72
2022/10/12 04:11:17;;;;;;;117.22;73.97;;;14.40;99.90;;;;;;5075692;28;20031;-72
2022/10/12 04:13:43;;;;;;;120.00;78.00;;;14.30;99.90;;;;;;5075482;28;20048;-72
2022/10/12 04:16:09;;;;;;;126.85;80.28;;;14.40;99.90;;;;;;5075377;28;20104;-72
2022/10/12 04:18:35;;;;;;;120.45;74.68;;;14.40;99.90;;;;;;5075747;28;20032;-72
2022/10/12 04:21:05;;;;;;;128.23;76.97;;;14.40;99.90;;;;;;5075405;28;20447;-72
2022/10/12 04:23:30;;;;;;;118.75;76.93;;;14.40;99.90;;;;;;5075443;28;20021;-72
2022/10/12 04:25:56;;;;;;;124.53;79.47;;;14.50;99.90;;;;;;5091118;28;20073;-72
2022/10/12 04:28:22;;;;;;;132.50;83.25;;;14.40;99.90;;;;;;5096053;28;20031;-72
2022/10/12 04:30:48;;;;;;;136.32;81.80;;;14.30;99.90;;;;;;5095612;28;20051;-72
2022/10/12 04:33:14;;;;;;;128.00;82.07;;;14.40;99.90;;;;;;5078985;28;20429;-72
2022/10/12 04:35:40;;;;;;;130.45;80.13;;;14.30;99.90;;;;;;5074959;28;20038;-72
2022/10/12 04:38:06;;;;;;;133.95;80.45;;;14.30;99.90;;;;;;5075141;28;20060;-72
2022/10/12 04:40:32;;;;;;;131.10;79.65;;;14.30;99.90;;;;;;5075314;28;20036;-72
2022/10/12 04:42:58;;;;;;;124.82;78.95;;;14.30;99.90;;;;;;5075134;28;20032;-72
2022/10/12 04:45:24;;;;;;;125.35;80.35;;;14.30;99.90;;;;;;5074870;28;20103;-72
2022/10/12 04:47:49;;;;;;;120.93;74.60;;;14.30;99.90;;;;;;5074922;28;20398;-72
2022/10/12 04:50:16;;;;;;;130.20;78.65;;;14.30;99.90;;;;;;5074775;28;20054;-72
2022/10/12 04:52:41;;;;;;;135.40;79.75;;;14.30;99.90;;;;;;5075038;28;20111;-72
2022/10/12 04:55:08;;;;;;;133.40;78.80;;;14.40;99.90;;;;;;5074855;28;20067;-72
2022/10/12 04:57:34;;;;;;;124.65;76.35;;;14.40;99.90;;;;;;5074627;28;20064;-72
2022/10/12 04:59:59;;;;;;;124.05;75.57;;;14.40;99.90;;;;;;5074790;28;20027;-72
2022/10/12 05:02:25;;;;;;;132.85;76.60;;;14.30;99.90;;;;;;5074681;28;20489;-72
2022/10/12 05:04:51;;;;;;;127.95;76.30;;;14.20;99.90;;;;;;5074488;28;20394;-72
2022/10/12 05:07:17;;;;;;;122.85;76.38;;;14.30;99.90;;;;;;5074620;28;20113;-72
2022/10/12 05:09:43;;;;;;;126.28;78.63;;;14.20;99.90;;;;;;5074144;28;20035;-72
2022/10/12 05:12:09;;;;;;;127.05;77.78;;;14.20;99.90;;;;;;5074293;28;20036;-72
2022/10/12 05:14:35;;;;;;;118.55;73.40;;;14.20;99.90;;;;;;5074233;28;20033;-72
2022/10/12 05:17:00;;;;;;;125.78;76.70;;;14.20;99.90;;;;;;5074439;28;20078;-72
2022/10/12 05:19:26;;;;;;;128.45;77.63;;;14.20;99.90;;;;;;5074010;28;20119;-72
2022/10/12 05:21:53;;;;;;;132.35;81.68;;;14.10;99.90;;;;;;5074726;28;20033;-72
2022/10/12 05:24:19;;;;;;;127.68;81.03;;;14.10;99.90;;;;;;5066890;28;20610;-72
2022/10/12 05:26:45;;;;;;;140.50;81.55;;;14.10;99.90;;;;;;5073029;28;20032;-72
2022/10/12 05:29:11;;;;;;;134.30;75.50;;;14.20;99.90;;;;;;5073935;28;20036;-72
2022/10/12 05:31:37;;;;;;;126.30;77.28;;;14.20;99.90;;;;;;5074807;28;21634;-72
2022/10/12 05:34:03;;;;;;;131.25;78.00;;;14.30;99.90;;;;;;5074041;28;20028;-72
2022/10/12 05:36:28;;;;;;;127.30;81.20;;;14.30;99.90;;;;;;5074107;28;20024;-72
2022/10/12 05:38:54;;;;;;;132.27;80.82;;;14.40;99.90;;;;;;5074062;28;20476;-72
2022/10/12 05:41:20;;;;;;;130.88;81.82;;;14.40;99.90;;;;;;5073883;28;20029;-72
2022/10/12 05:43:46;;;;;;;139.10;84.68;;;14.40;99.90;;;;;;5074155;28;20028;-73
2022/10/12 05:46:12;;;;;;;133.85;83.10;;;14.30;99.90;;;;;;5073888;28;20137;-72
2022/10/12 05:48:38;;;;;;;127.63;76.93;;;14.40;99.90;;;;;;5073844;28;20386;-72
2022/10/12 05:51:04;;;;;;;130.02;79.70;;;14.40;99.90;;;;;;5073842;28;20482;-72
2022/10/12 05:53:30;;;;;;;121.30;74.95;;;14.50;99.90;;;;;;5073909;28;20036;-72
2022/10/12 05:56:00;;;;;;;129.75;76.55;;;14.50;99.90;;;;;;5073864;28;20051;-72
2022/10/12 05:58:28;;;;;;;119.47;73.55;;;14.50;99.90;;;;;;5069049;28;20025;-72
2022/10/12 06:00:54;;;;;;;129.40;78.43;;;14.50;99.90;;;;;;5064517;28;20400;-73
2022/10/12 06:03:21;;;;;;;120.95;71.32;;;14.50;99.90;;;;;;5057293;28;20387;-74
2022/10/12 06:05:47;;;;;;;119.65;74.00;;;14.60;99.90;;;;;;5058016;28;20421;-72
2022/10/12 06:08:13;;;;;;;129.07;76.95;;;14.50;99.90;;;;;;5065166;28;20032;-73
2022/10/12 06:18:31;;;;;;;132.73;77.10;;;14.60;99.90;;;;;;5066797;28;20043;-72
2022/10/12 06:20:57;;;;;;;122.10;76.63;;;14.70;99.90;;;;;;5073818;28;20123;-71
2022/10/12 06:23:23;;;;;;;122.05;77.38;;;14.80;99.90;;;;;;5076797;28;20482;-71
2022/10/12 06:25:50;;;;;;;136.00;80.82;;;14.90;99.90;;;;;;5091963;28;20430;-71
2022/10/12 06:28:19;;;;;;;122.75;76.45;;;15.00;99.90;;;;;;5098848;28;20028;-71
2022/10/12 06:30:45;;;;;;;137.40;83.85;;;15.00;99.90;;;;;;5098649;28;20036;-72
2022/10/12 06:33:11;;;;;;;133.07;81.53;;;15.00;99.90;;;;;;5081430;28;20048;-72
2022/10/12 06:35:40;;;;;;;131.98;82.90;;;15.00;99.90;;;;;;5076550;28;20063;-72
2022/10/12 06:38:06;;;;;;;139.20;86.00;;;15.00;99.90;;;;;;5077011;28;20390;-72
2022/10/12 06:40:32;;;;;;;133.43;86.18;;;15.10;99.90;;;;;;5077722;28;20020;-72
2022/10/12 06:43:01;;;;;;;144.23;89.13;;;15.10;99.90;;;;;;5078225;28;20024;-72
2022/10/12 06:45:28;;;;;;;136.25;84.22;;;15.10;99.90;;;;;;5077861;28;20115;-72
2022/10/12 06:47:55;;;;;;;134.43;84.63;;;15.20;99.90;;;;;;5077189;28;20150;-72
2022/10/12 06:50:21;;;;;;;146.27;84.03;;;15.20;99.90;;;;;;5076430;28;20044;-72
2022/10/12 06:52:51;;;;;;;137.60;85.85;;;15.40;99.90;;;;;;5076705;28;20025;-72
2022/10/12 06:55:20;;;;;;;137.63;85.47;;;15.50;99.90;;;;;;5066042;28;20052;-72
2022/10/12 06:57:46;;;;;;;132.55;84.15;;;15.60;99.90;;;;;;5068056;28;20051;-72
2022/10/12 07:00:13;;;;;;;149.52;89.65;;;15.80;99.90;;;;;;5075683;28;20060;-72
2022/10/12 07:02:39;;;;;;;150.13;87.78;;;16.00;99.90;;;;;;5076595;28;20070;-72
2022/10/12 07:05:08;;;;;;;150.80;90.13;;;16.10;99.90;;;;;;5074719;28;20036;-72
2022/10/12 07:07:38;;;;;;;163.95;95.03;;;16.10;99.90;;;;;;5076965;28;20021;-72
2022/10/12 07:10:05;;;;;;;146.13;88.25;;;16.40;99.90;;;;;;5076829;28;20025;-74
2022/10/12 07:12:31;;;;;;;142.38;86.90;;;16.60;99.90;;;;;;5076702;28;20151;-73
2022/10/12 07:14:58;;;;;;;140.55;86.15;;;16.90;99.90;;;;;;5076736;28;20090;-72
2022/10/12 07:17:28;;;;;;;130.93;81.30;;;17.20;99.90;;;;;;5076625;28;20094;-72
2022/10/12 07:19:56;;;;;;;143.75;85.38;;;17.50;99.90;;;;;;5076017;28;20025;-73
2022/10/12 07:22:26;;;;;;;135.13;79.05;;;17.90;99.90;;;;;;5076614;28;20505;-73
2022/10/12 07:24:53;;;;;;;122.32;78.20;;;18.10;99.90;;;;;;5085274;28;20466;-73
2022/10/12 07:27:19;;;;;;;136.35;81.70;;;18.60;99.90;;;;;;5083596;28;20434;-73
2022/10/12 07:29:48;;;;;;;139.05;83.65;;;18.30;99.90;;;;;;5093243;28;20028;-72
2022/10/12 07:32:14;;;;;;;141.60;83.88;;;18.30;99.90;;;;;;5074668;28;20024;-72
2022/10/12 07:34:42;;;;;;;127.03;82.03;;;18.30;99.90;;;;;;5081247;28;20085;-72
2022/10/12 07:37:09;;;;;;;158.00;80.28;;;18.60;99.90;;;;;;5075617;28;20032;-73
2022/10/12 07:39:34;;;;;;;132.68;77.63;;;18.90;99.90;;;;;;5075912;28;20044;-73
2022/10/12 07:42:00;;;;;;;118.75;71.57;;;19.10;99.90;;;;;;5075973;28;20472;-73
2022/10/12 07:44:27;;;;;;;131.93;77.40;;;19.30;99.90;;;;;;5075914;28;20029;-73
2022/10/12 07:46:53;;;;;;;127.50;78.60;;;19.70;99.90;;;;;;5075090;28;20032;-73
2022/10/12 07:49:19;;;;;;;135.30;76.32;;;20.40;99.90;;;;;;5076125;28;20111;-73
2022/10/12 07:51:47;;;;;;;121.78;71.80;;;20.70;99.90;;;;;;5076736;28;20065;-73
2022/10/12 07:54:14;;;;;;;128.90;75.60;;;21.00;99.90;;;;;;5076845;28;20025;-73
2022/10/12 07:56:40;;;;;;;120.35;74.97;;;21.70;99.90;;;;;;5076641;28;20138;-73
2022/10/12 07:59:06;;;;;;;111.15;69.90;;;21.60;99.90;;;;;;5076328;28;20032;-73
2022/10/12 08:01:32;;;;;;;110.85;68.63;;;21.10;98.90;;;;;;5076592;28;20028;-73
2022/10/12 08:03:58;;;;;;;114.43;71.47;;;21.20;99.90;;;;;;5076656;28;20526;-73
2022/10/12 08:06:27;;;;;;;104.63;67.20;;;21.00;99.90;;;;;;5075046;28;20474;-73
2022/10/12 08:08:53;;;;;;;106.68;66.63;;;21.40;99.90;;;;;;5075383;28;20715;-73
2022/10/12 08:11:20;;;;;;;89.60;57.42;;;21.90;97.90;;;;;;5075413;28;20169;-72
2022/10/12 08:13:46;;;;;;;85.32;52.63;;;22.10;97.00;;;;;;5075320;28;20471;-72
2022/10/12 08:16:15;;;;;;;81.25;52.00;;;22.20;94.20;;;;;;5075115;28;20056;-72
2022/10/12 08:18:42;;;;;;;91.22;58.40;;;21.40;96.10;;;;;;5075166;28;20122;-72
2022/10/12 08:21:09;;;;;;;103.22;62.15;;;22.00;96.20;;;;;;5074887;28;20478;-72
2022/10/12 08:23:36;;;;;;;91.78;60.92;;;21.80;95.60;;;;;;5075046;28;20029;-72
2022/10/12 08:26:03;;;;;;;86.35;57.00;;;21.90;96.80;;;;;;5091754;28;20035;-72
2022/10/12 08:28:30;;;;;;;72.78;49.65;;;22.00;95.30;;;;;;5095258;28;20026;-72
2022/10/12 08:30:55;;;;;;;78.30;50.67;;;22.30;94.00;;;;;;5095493;28;20035;-72
2022/10/12 08:33:21;;;;;;;86.25;54.22;;;22.60;93.90;;;;;;5077522;28;20028;-72
2022/10/12 08:35:48;;;;;;;95.97;57.42;;;23.20;91.30;;;;;;5075146;28;20099;-71
2022/10/12 08:38:14;;;;;;;76.95;53.20;;;22.80;90.40;;;;;;5074771;28;20044;-71
2022/10/12 08:40:55;;;;;;;80.82;52.80;;;22.20;92.10;;;;;;5075085;28;20043;-71
2022/10/12 08:43:24;;;;;;;83.93;52.90;;;21.80;94.80;;;;;;5074436;28;20485;-70
2022/10/12 08:45:55;;;;;;;72.32;50.58;;;21.90;93.80;;;;;;5074495;28;20037;-70
2022/10/12 08:48:33;;;;;;;72.07;50.38;;;21.60;95.80;;;;;;5073887;28;20114;-70
2022/10/12 08:51:04;;;;;;;81.88;53.25;;;21.40;94.60;;;;;;5075468;28;20466;-70
2022/10/12 08:54:02;;;;;;;94.70;55.28;;;21.10;96.30;;;;;;5075127;28;20035;-70
2022/10/12 08:56:28;;;;;;;89.35;54.88;;;20.90;96.40;;;;;;5054558;28;20033;-70
2022/10/12 08:58:54;;;;;;;82.55;54.00;;;20.70;97.40;;;;;;5054159;28;20098;-70
2022/10/12 09:01:37;;;;;;;82.53;56.13;;;20.90;97.50;;;;;;5054557;28;20032;-70
2022/10/12 09:04:24;;;;;;;83.10;54.67;;;20.80;97.70;;;;;;5054647;28;20052;-70
2022/10/12 09:07:04;;;;;;;92.13;59.15;;;20.70;97.90;;;;;;5073541;28;20108;-70
2022/10/12 09:09:45;;;;;;;83.55;54.13;;;20.90;97.70;;;;;;5074402;28;20029;-70
2022/10/12 09:12:53;;;;;;;85.50;56.97;;;21.00;97.50;;;;;;5074760;28;20036;-70
2022/10/12 09:15:29;;;;;;;88.70;56.63;;;21.20;97.10;;;;;;5035005;28;20044;-70
2022/10/12 09:17:57;;;;;;;95.38;60.78;;;21.20;97.30;;;;;;5074253;28;20047;-70
2022/10/12 09:20:39;;;;;;;97.63;60.45;;;21.00;97.60;;;;;;5074495;28;20028;-70
2022/10/12 09:23:30;;;;;;;84.80;56.85;;;21.20;97.90;;;;;;5074213;28;20024;-70
2022/10/12 09:26:12;;;;;;;84.07;56.10;;;21.30;98.50;;;;;;5090294;28;20027;-70
2022/10/12 09:28:42;;;;;;;88.72;57.08;;;21.40;96.70;;;;;;5094368;28;20441;-69
2022/10/12 09:31:17;;;;;;;84.50;54.42;;;21.10;97.00;;;;;;5094603;28;20036;-69
2022/10/12 09:33:56;;;;;;;87.18;53.97;;;21.30;97.90;;;;;;5054243;28;20032;-69
2022/10/12 09:36:26;;;;;;;83.00;50.60;;;21.40;97.40;;;;;;5058464;28;20035;-69
2022/10/12 09:38:53;;;;;;;80.17;50.83;;;21.30;96.60;;;;;;5073317;28;20522;-70
2022/10/12 09:41:30;;;;;;;74.78;51.72;;;21.00;97.70;;;;;;5074273;28;20254;-69
2022/10/12 09:43:59;;;;;;;78.35;50.97;;;21.00;98.80;;;;;;5073942;28;20052;-69
2022/10/12 09:46:39;;;;;;;79.55;51.05;;;21.00;97.80;;;;;;5073517;28;20405;-70
2022/10/12 09:49:05;;;;;;;79.10;50.97;;;21.20;98.50;;;;;;5072665;28;20029;-69
2022/10/12 09:51:31;;;;;;;75.63;50.83;;;21.20;97.60;;;;;;5074135;28;20037;-70
2022/10/12 09:54:02;;;;;;;72.97;49.03;;;21.50;99.90;;;;;;5074206;28;20701;-70
2022/10/12 09:56:41;;;;;;;67.43;46.42;;;21.70;96.30;;;;;;5074174;28;20102;-70
2022/10/12 09:59:40;;;;;;;76.65;49.42;;;21.90;95.00;;;;;;5071002;28;20033;-70
2022/10/12 10:02:20;;;;;;;70.78;47.60;;;22.10;94.70;;;;;;5059839;28;20383;-69
2022/10/12 10:04:48;;;;;;;85.13;52.10;;;22.30;95.90;;;;;;5063088;28;20025;-70
2022/10/12 10:07:32;;;;;;;78.22;49.60;;;22.60;94.20;;;;;;5063920;28;20029;-69
2022/10/12 10:10:20;;;;;;;67.80;46.17;;;23.10;93.70;;;;;;5060473;28;20032;-70
2022/10/12 10:12:52;;;;;;;63.90;43.72;;;23.20;90.90;;;;;;5080999;28;20466;-70
2022/10/12 10:15:22;;;;;;;65.85;43.25;;;23.40;89.40;;;;;;5079025;28;20036;-70
2022/10/12 10:17:58;;;;;;;69.05;44.00;;;23.50;88.60;;;;;;5064367;28;20036;-70
2022/10/12 10:20:48;;;;;;;58.72;39.85;;;23.50;87.70;;;;;;5077831;28;20466;-70
2022/10/12 10:23:48;;;;;;;60.22;40.17;;;23.40;80.70;;;;;;5092250;28;20028;-69
2022/10/12 10:26:16;;;;;;;55.58;39.55;;;23.30;81.70;;;;;;5070153;28;20037;-69
2022/10/12 10:28:44;;;;;;;63.70;42.53;;;23.50;83.50;;;;;;5083901;28;20020;-70
2022/10/12 10:31:20;;;;;;;61.35;40.92;;;23.60;79.00;;;;;;5093876;28;20036;-70
2022/10/12 10:34:12;;;;;;;58.85;41.22;;;23.60;78.70;;;;;;5071080;28;20385;-70
2022/10/12 10:36:48;;;;;;;66.10;42.65;;;23.70;77.20;;;;;;5073700;28;20670;-70
2022/10/12 10:39:18;;;;;;;61.70;40.47;;;23.50;82.10;;;;;;5074380;28;20085;-70
2022/10/12 10:41:44;;;;;;;57.30;38.33;;;24.20;81.20;;;;;;5071722;28;20033;-70
2022/10/12 10:44:29;;;;;;;49.28;37.10;;;24.70;81.00;;;;;;5068678;28;20035;-70
2022/10/12 10:47:00;;;;;;;60.28;36.65;;;24.40;78.60;;;;;;5078027;28;20036;-70
2022/10/12 10:49:40;;;;;;;54.40;39.03;;;25.20;72.10;;;;;;5068799;28;20035;-71
2022/10/12 10:52:25;;;;;;;47.58;34.30;;;25.90;71.80;;;;;;5059816;28;20082;-71
2022/10/12 10:55:09;;;;;;;46.78;32.92;;;26.00;66.00;;;;;;5060992;28;20029;-71
2022/10/12 10:57:40;;;;;;;43.10;30.42;;;25.90;66.60;;;;;;5065039;28;20025;-71
2022/10/12 11:00:14;;;;;;;44.45;30.08;;;26.00;61.30;;;;;;5073096;28;20311;-71
2022/10/12 11:02:55;;;;;;;40.13;27.63;;;25.60;60.10;;;;;;5073363;28;20067;-71
2022/10/12 11:05:47;;;;;;;38.50;29.73;;;25.60;59.70;;;;;;5072376;28;20025;-70
2022/10/12 11:08:23;;;;;;;49.38;32.35;;;26.20;59.60;;;;;;5037953;28;20505;-71
2022/10/12 11:11:19;;;;;;;43.92;29.38;;;26.40;59.40;;;;;;5064904;28;20029;-71
2022/10/12 11:14:01;;;;;;;44.55;30.85;;;26.60;59.30;;;;;;5067384;28;20041;-70
2022/10/12 11:16:46;;;;;;;65.07;35.08;;;26.60;60.40;;;;;;5071799;28;20426;-70
2022/10/12 11:19:38;;;;;;;46.33;31.25;;;25.90;59.50;;;;;;5076217;28;20428;-70
2022/10/12 11:22:20;;;;;;;53.58;31.75;;;26.60;59.80;;;;;;5057124;28;20056;-69
2022/10/12 11:25:10;;;;;;;42.92;31.20;;;27.00;57.30;;;;;;5059879;28;20024;-69
2022/10/12 11:27:41;;;;;;;49.70;33.17;;;26.70;58.00;;;;;;5067495;28;20120;-69
2022/10/12 11:30:23;;;;;;;56.50;36.33;;;25.80;57.10;;;;;;5066628;28;20036;-69
2022/10/12 11:32:54;;;;;;;50.08;34.67;;;25.50;59.20;;;;;;5060242;28;20429;-69
2022/10/12 11:35:26;;;;;;;47.50;36.33;;;25.20;60.80;;;;;;5055839;28;20025;-69
2022/10/12 11:37:59;;;;;;;50.63;33.63;;;24.40;60.70;;;;;;5063495;28;20036;-70
2022/10/12 11:40:34;;;;;;;60.78;35.35;;;24.90;63.80;;;;;;5061675;28;20028;-70
2022/10/12 11:43:05;;;;;;;51.47;33.13;;;24.80;62.00;;;;;;5074749;28;20036;-70
2022/10/12 11:45:38;;;;;;;47.10;32.33;;;25.60;61.00;;;;;;5071497;28;20020;-69
2022/10/12 11:48:21;;;;;;;45.75;31.00;;;25.90;59.80;;;;;;5073897;28;20036;-70
2022/10/12 11:50:49;;;;;;;51.65;32.45;;;26.20;62.30;;;;;;5060552;28;20029;-69
2022/10/12 11:53:42;;;;;;;43.90;32.67;;;26.40;57.90;;;;;;5076208;28;20082;-69
2022/10/12 11:56:30;;;;;;;44.90;31.10;;;25.80;60.40;;;;;;5075767;28;20500;-69
2022/10/12 11:59:11;;;;;;;45.47;33.97;;;25.60;61.30;;;;;;5076069;28;20081;-69
2022/10/12 12:02:09;;;;;;;60.47;36.60;;;24.80;62.40;;;;;;5076469;28;20107;-69
2022/10/12 12:04:40;;;;;;;57.17;35.58;;;24.70;63.10;;;;;;5065502;28;20460;-69
2022/10/12 12:07:43;;;;;;;53.42;34.42;;;24.10;68.20;;;;;;5076173;28;20042;-68
2022/10/12 12:10:25;;;;;;;50.90;32.50;;;23.70;68.50;;;;;;5067247;28;20134;-68
2022/10/12 12:13:12;;;;;;;40.30;29.67;;;23.50;69.80;;;;;;5064527;28;20033;-68
2022/10/12 12:15:39;;;;;;;47.70;29.75;;;23.60;66.60;;;;;;5060741;28;20029;-68
2022/10/12 12:18:23;;;;;;;52.90;31.30;;;23.40;68.00;;;;;;5054426;28;20077;-68
2022/10/12 12:20:59;;;;;;;40.20;27.40;;;23.60;66.90;;;;;;5090890;28;20020;-68
2022/10/12 12:23:28;;;;;;;40.17;28.63;;;23.50;67.80;;;;;;5089921;28;20081;-68
2022/10/12 12:26:08;;;;;;;54.08;29.38;;;23.30;69.30;;;;;;5070136;28;20032;-68
2022/10/12 12:28:38;;;;;;;;;;;23.30;72.10;;;;;;5075063;28;20531;-68
2022/10/12 12:31:22;;;;;;;48.50;27.30;;;23.30;70.90;;;;;;5074905;28;19920;-68
2022/10/12 12:34:00;;;;;;;38.63;24.63;;;23.40;71.30;;;;;;5074602;28;20089;-68
2022/10/12 12:36:47;;;;;;;34.47;23.83;;;23.20;75.80;;;;;;5075058;28;20509;-68
2022/10/12 12:39:29;;;;;;;40.58;23.05;;;23.20;69.10;;;;;;5074989;28;20036;-68
2022/10/12 12:41:59;;;;;;;42.80;24.73;;;23.00;69.70;;;;;;5075012;28;20031;-68
2022/10/12 12:44:41;;;;;;;41.05;25.00;;;22.60;74.70;;;;;;5074883;28;20096;-68
2022/10/12 12:47:10;;;;;;;44.85;24.08;;;22.70;71.70;;;;;;5074963;28;20498;-68
2022/10/12 12:49:36;;;;;;;43.67;24.00;;;22.50;75.30;;;;;;5075003;28;20133;-68
2022/10/12 12:52:16;;;;;;;35.53;23.38;;;22.30;75.30;;;;;;5075134;28;20547;-68
2022/10/12 12:55:05;;;;;;;50.70;28.02;;;22.20;77.60;;;;;;5074249;28;20301;-68